sensor_id;sensor_type;location;lat;lon;timestamp;P1;durP1;ratioP1;P2;durP2;ratioP2
66384;SDS011;53426;55.872;37.462;2023-02-28T00:00:40;7.40;;;3.97;;
66384;SDS011;53426;55.872;37.462;2023-02-28T00:03:06;6.05;;;5.00;;
66384;SDS011;53426;55.872;37.462;2023-02-28T00:05:31;9.85;;;6.07;;
66384;SDS011;53426;55.872;37.462;2023-02-28T00:07:58;5.25;;;4.13;;
66384;SDS011;53426;55.872;37.462;2023-02-28T00:10:24;6.20;;;4.50;;
66384;SDS011;53426;55.872;37.462;2023-02-28T00:12:53;7.47;;;5.43;;
66384;SDS011;53426;55.872;37.462;2023-02-28T00:15:23;7.57;;;5.70;;
66384;SDS011;53426;55.872;37.462;2023-02-28T00:17:49;7.63;;;5.60;;
66384;SDS011;53426;55.872;37.462;2023-02-28T00:20:15;6.32;;;5.20;;
66384;SDS011;53426;55.872;37.462;2023-02-28T00:22:42;9.05;;;5.82;;
66384;SDS011;53426;55.872;37.462;2023-02-28T00:25:10;8.15;;;5.93;;
66384;SDS011;53426;55.872;37.462;2023-02-28T00:27:38;6.68;;;5.50;;
66384;SDS011;53426;55.872;37.462;2023-02-28T00:30:05;6.70;;;5.32;;
66384;SDS011;53426;55.872;37.462;2023-02-28T00:32:33;7.32;;;4.75;;
66384;SDS011;53426;55.872;37.462;2023-02-28T00:35:00;9.20;;;5.78;;
66384;SDS011;53426;55.872;37.462;2023-02-28T00:37:29;9.80;;;6.30;;
66384;SDS011;53426;55.872;37.462;2023-02-28T00:39:58;6.45;;;5.28;;
66384;SDS011;53426;55.872;37.462;2023-02-28T00:42:24;8.25;;;5.38;;
66384;SDS011;53426;55.872;37.462;2023-02-28T00:44:50;6.38;;;5.03;;
66384;SDS011;53426;55.872;37.462;2023-02-28T00:47:16;7.75;;;4.93;;
66384;SDS011;53426;55.872;37.462;2023-02-28T00:49:42;8.63;;;4.85;;
66384;SDS011;53426;55.872;37.462;2023-02-28T00:52:09;7.57;;;4.18;;
66384;SDS011;53426;55.872;37.462;2023-02-28T00:54:35;7.53;;;4.97;;
66384;SDS011;53426;55.872;37.462;2023-02-28T00:57:01;6.10;;;3.80;;
66384;SDS011;53426;55.872;37.462;2023-02-28T00:59:27;7.03;;;5.25;;
66384;SDS011;53426;55.872;37.462;2023-02-28T01:01:53;8.00;;;5.35;;
66384;SDS011;53426;55.872;37.462;2023-02-28T01:04:21;4.53;;;3.72;;
66384;SDS011;53426;55.872;37.462;2023-02-28T01:06:47;6.75;;;5.18;;
66384;SDS011;53426;55.872;37.462;2023-02-28T01:09:13;6.35;;;5.28;;
66384;SDS011;53426;55.872;37.462;2023-02-28T01:11:41;9.82;;;5.57;;
66384;SDS011;53426;55.872;37.462;2023-02-28T01:14:13;6.25;;;5.63;;
66384;SDS011;53426;55.872;37.462;2023-02-28T01:16:40;7.18;;;5.28;;
66384;SDS011;53426;55.872;37.462;2023-02-28T01:19:05;7.50;;;5.65;;
66384;SDS011;53426;55.872;37.462;2023-02-28T01:21:33;8.90;;;5.72;;
66384;SDS011;53426;55.872;37.462;2023-02-28T01:24:00;7.40;;;5.45;;
66384;SDS011;53426;55.872;37.462;2023-02-28T01:26:26;9.07;;;6.35;;
66384;SDS011;53426;55.872;37.462;2023-02-28T01:28:52;9.80;;;3.15;;
66384;SDS011;53426;55.872;37.462;2023-02-28T01:31:18;8.43;;;5.10;;
66384;SDS011;53426;55.872;37.462;2023-02-28T01:33:46;7.15;;;4.80;;
66384;SDS011;53426;55.872;37.462;2023-02-28T01:36:13;8.35;;;5.53;;
66384;SDS011;53426;55.872;37.462;2023-02-28T01:38:44;6.57;;;4.38;;
66384;SDS011;53426;55.872;37.462;2023-02-28T01:41:19;5.32;;;4.22;;
66384;SDS011;53426;55.872;37.462;2023-02-28T01:46:11;8.85;;;5.40;;
66384;SDS011;53426;55.872;37.462;2023-02-28T01:48:41;6.38;;;5.05;;
66384;SDS011;53426;55.872;37.462;2023-02-28T01:51:52;7.90;;;5.10;;
66384;SDS011;53426;55.872;37.462;2023-02-28T01:54:30;5.65;;;3.88;;
66384;SDS011;53426;55.872;37.462;2023-02-28T01:57:09;6.13;;;4.90;;
66384;SDS011;53426;55.872;37.462;2023-02-28T02:00:03;6.28;;;5.32;;
66384;SDS011;53426;55.872;37.462;2023-02-28T02:02:38;5.50;;;4.35;;
66384;SDS011;53426;55.872;37.462;2023-02-28T02:05:18;3.90;;;3.58;;
66384;SDS011;53426;55.872;37.462;2023-02-28T02:07:46;7.68;;;5.45;;
66384;SDS011;53426;55.872;37.462;2023-02-28T02:10:20;8.63;;;5.35;;
66384;SDS011;53426;55.872;37.462;2023-02-28T02:26:56;8.50;;;4.63;;
66384;SDS011;53426;55.872;37.462;2023-02-28T02:30:02;7.28;;;4.75;;
66384;SDS011;53426;55.872;37.462;2023-02-28T02:35:43;4.85;;;4.15;;
66384;SDS011;53426;55.872;37.462;2023-02-28T02:41:14;10.10;;;5.13;;
66384;SDS011;53426;55.872;37.462;2023-02-28T02:43:50;3.20;;;2.90;;
66384;SDS011;53426;55.872;37.462;2023-02-28T02:46:37;6.65;;;4.00;;
66384;SDS011;53426;55.872;37.462;2023-02-28T02:49:21;6.50;;;5.20;;
66384;SDS011;53426;55.872;37.462;2023-02-28T02:51:49;3.50;;;3.15;;
66384;SDS011;53426;55.872;37.462;2023-02-28T02:54:22;7.03;;;4.90;;
66384;SDS011;53426;55.872;37.462;2023-02-28T02:56:57;5.63;;;3.95;;
66384;SDS011;53426;55.872;37.462;2023-02-28T02:59:27;5.82;;;3.97;;
66384;SDS011;53426;55.872;37.462;2023-02-28T03:01:58;8.98;;;5.28;;
66384;SDS011;53426;55.872;37.462;2023-02-28T03:04:28;6.03;;;4.60;;
66384;SDS011;53426;55.872;37.462;2023-02-28T03:06:58;6.40;;;5.07;;
66384;SDS011;53426;55.872;37.462;2023-02-28T03:09:25;5.85;;;4.18;;
66384;SDS011;53426;55.872;37.462;2023-02-28T03:11:52;6.40;;;5.00;;
66384;SDS011;53426;55.872;37.462;2023-02-28T03:14:27;5.95;;;4.35;;
66384;SDS011;53426;55.872;37.462;2023-02-28T03:28:31;4.85;;;3.90;;
66384;SDS011;53426;55.872;37.462;2023-02-28T03:31:09;5.75;;;3.40;;
66384;SDS011;53426;55.872;37.462;2023-02-28T03:33:45;4.45;;;3.55;;
66384;SDS011;53426;55.872;37.462;2023-02-28T03:36:32;7.20;;;4.15;;
66384;SDS011;53426;55.872;37.462;2023-02-28T03:39:13;7.10;;;3.78;;
66384;SDS011;53426;55.872;37.462;2023-02-28T03:41:44;5.75;;;4.75;;
66384;SDS011;53426;55.872;37.462;2023-02-28T03:44:18;5.50;;;4.40;;
66384;SDS011;53426;55.872;37.462;2023-02-28T03:46:52;6.70;;;4.13;;
66384;SDS011;53426;55.872;37.462;2023-02-28T03:49:26;6.38;;;4.40;;
66384;SDS011;53426;55.872;37.462;2023-02-28T03:52:08;3.05;;;2.35;;
66384;SDS011;53426;55.872;37.462;2023-02-28T03:54:41;5.68;;;3.78;;
66384;SDS011;53426;55.872;37.462;2023-02-28T03:57:12;7.47;;;4.45;;
66384;SDS011;53426;55.872;37.462;2023-02-28T03:59:48;6.35;;;4.38;;
66384;SDS011;53426;55.872;37.462;2023-02-28T04:02:21;5.38;;;4.35;;
66384;SDS011;53426;55.872;37.462;2023-02-28T04:04:47;6.85;;;4.53;;
66384;SDS011;53426;55.872;37.462;2023-02-28T04:07:14;8.38;;;4.13;;
66384;SDS011;53426;55.872;37.462;2023-02-28T04:09:40;6.30;;;5.13;;
66384;SDS011;53426;55.872;37.462;2023-02-28T04:12:06;4.80;;;4.13;;
66384;SDS011;53426;55.872;37.462;2023-02-28T04:14:32;5.65;;;3.60;;
66384;SDS011;53426;55.872;37.462;2023-02-28T04:16:58;2.97;;;2.53;;
66384;SDS011;53426;55.872;37.462;2023-02-28T04:19:26;3.10;;;2.78;;
66384;SDS011;53426;55.872;37.462;2023-02-28T04:21:52;6.43;;;4.43;;
66384;SDS011;53426;55.872;37.462;2023-02-28T04:24:20;6.50;;;4.38;;
66384;SDS011;53426;55.872;37.462;2023-02-28T04:26:49;5.57;;;4.43;;
66384;SDS011;53426;55.872;37.462;2023-02-28T04:29:24;5.95;;;4.05;;
66384;SDS011;53426;55.872;37.462;2023-02-28T04:34:24;2.10;;;2.00;;
66384;SDS011;53426;55.872;37.462;2023-02-28T04:36:54;4.35;;;3.95;;
66384;SDS011;53426;55.872;37.462;2023-02-28T04:39:21;5.40;;;4.10;;
66384;SDS011;53426;55.872;37.462;2023-02-28T04:41:48;5.60;;;3.85;;
66384;SDS011;53426;55.872;37.462;2023-02-28T04:44:17;7.57;;;3.60;;
66384;SDS011;53426;55.872;37.462;2023-02-28T04:46:43;6.43;;;3.63;;
66384;SDS011;53426;55.872;37.462;2023-02-28T04:49:10;4.30;;;3.90;;
66384;SDS011;53426;55.872;37.462;2023-02-28T04:51:37;4.78;;;2.83;;
66384;SDS011;53426;55.872;37.462;2023-02-28T04:54:02;5.45;;;3.83;;
66384;SDS011;53426;55.872;37.462;2023-02-28T04:56:30;5.28;;;4.30;;
66384;SDS011;53426;55.872;37.462;2023-02-28T04:58:55;4.80;;;3.65;;
66384;SDS011;53426;55.872;37.462;2023-02-28T05:03:53;6.32;;;4.35;;
66384;SDS011;53426;55.872;37.462;2023-02-28T05:06:21;5.82;;;3.90;;
66384;SDS011;53426;55.872;37.462;2023-02-28T05:08:49;5.05;;;4.03;;
66384;SDS011;53426;55.872;37.462;2023-02-28T05:11:19;4.60;;;3.70;;
66384;SDS011;53426;55.872;37.462;2023-02-28T05:13:47;3.75;;;3.40;;
66384;SDS011;53426;55.872;37.462;2023-02-28T05:16:14;6.38;;;4.55;;
66384;SDS011;53426;55.872;37.462;2023-02-28T05:18:40;8.20;;;3.92;;
66384;SDS011;53426;55.872;37.462;2023-02-28T05:21:13;4.13;;;3.70;;
66384;SDS011;53426;55.872;37.462;2023-02-28T05:23:49;5.05;;;3.42;;
66384;SDS011;53426;55.872;37.462;2023-02-28T05:26:15;4.88;;;3.72;;
66384;SDS011;53426;55.872;37.462;2023-02-28T05:28:41;3.80;;;3.50;;
66384;SDS011;53426;55.872;37.462;2023-02-28T05:31:07;4.82;;;4.20;;
66384;SDS011;53426;55.872;37.462;2023-02-28T05:33:36;5.95;;;3.47;;
66384;SDS011;53426;55.872;37.462;2023-02-28T05:36:01;4.40;;;3.50;;
66384;SDS011;53426;55.872;37.462;2023-02-28T05:38:28;4.10;;;3.60;;
66384;SDS011;53426;55.872;37.462;2023-02-28T05:40:53;4.25;;;3.90;;
66384;SDS011;53426;55.872;37.462;2023-02-28T05:43:19;7.65;;;4.28;;
66384;SDS011;53426;55.872;37.462;2023-02-28T05:45:45;3.40;;;2.78;;
66384;SDS011;53426;55.872;37.462;2023-02-28T05:48:12;4.20;;;3.80;;
66384;SDS011;53426;55.872;37.462;2023-02-28T05:50:38;4.50;;;3.70;;
66384;SDS011;53426;55.872;37.462;2023-02-28T05:53:03;4.07;;;2.67;;
66384;SDS011;53426;55.872;37.462;2023-02-28T05:55:32;5.70;;;4.05;;
66384;SDS011;53426;55.872;37.462;2023-02-28T05:57:58;4.53;;;3.97;;
66384;SDS011;53426;55.872;37.462;2023-02-28T06:00:24;4.03;;;3.33;;
66384;SDS011;53426;55.872;37.462;2023-02-28T06:02:50;4.93;;;3.67;;
66384;SDS011;53426;55.872;37.462;2023-02-28T06:05:21;7.25;;;4.13;;
66384;SDS011;53426;55.872;37.462;2023-02-28T06:07:49;5.63;;;4.13;;
66384;SDS011;53426;55.872;37.462;2023-02-28T06:10:16;5.05;;;3.60;;
66384;SDS011;53426;55.872;37.462;2023-02-28T06:12:42;3.60;;;3.30;;
66384;SDS011;53426;55.872;37.462;2023-02-28T06:15:11;5.63;;;3.45;;
66384;SDS011;53426;55.872;37.462;2023-02-28T06:20:29;3.78;;;3.38;;
66384;SDS011;53426;55.872;37.462;2023-02-28T06:26:12;3.30;;;3.00;;
66384;SDS011;53426;55.872;37.462;2023-02-28T06:31:23;5.00;;;3.22;;
66384;SDS011;53426;55.872;37.462;2023-02-28T06:33:51;4.43;;;3.90;;
66384;SDS011;53426;55.872;37.462;2023-02-28T06:36:43;4.65;;;3.58;;
66384;SDS011;53426;55.872;37.462;2023-02-28T06:42:05;3.40;;;3.10;;
66384;SDS011;53426;55.872;37.462;2023-02-28T06:47:21;4.13;;;3.65;;
66384;SDS011;53426;55.872;37.462;2023-02-28T06:49:47;7.43;;;4.10;;
66384;SDS011;53426;55.872;37.462;2023-02-28T07:01:26;4.28;;;3.22;;
66384;SDS011;53426;55.872;37.462;2023-02-28T07:04:25;3.67;;;3.15;;
66384;SDS011;53426;55.872;37.462;2023-02-28T07:06:51;3.53;;;3.10;;
66384;SDS011;53426;55.872;37.462;2023-02-28T07:09:17;6.10;;;3.80;;
66384;SDS011;53426;55.872;37.462;2023-02-28T07:11:44;3.70;;;3.33;;
66384;SDS011;53426;55.872;37.462;2023-02-28T07:14:10;3.78;;;3.40;;
66384;SDS011;53426;55.872;37.462;2023-02-28T07:16:36;6.90;;;3.92;;
66384;SDS011;53426;55.872;37.462;2023-02-28T07:19:01;4.97;;;3.97;;
66384;SDS011;53426;55.872;37.462;2023-02-28T07:21:27;4.10;;;3.58;;
66384;SDS011;53426;55.872;37.462;2023-02-28T07:23:53;3.10;;;2.50;;
66384;SDS011;53426;55.872;37.462;2023-02-28T07:26:19;4.07;;;3.67;;
66384;SDS011;53426;55.872;37.462;2023-02-28T07:28:46;6.82;;;4.30;;
66384;SDS011;53426;55.872;37.462;2023-02-28T07:31:13;5.78;;;4.43;;
66384;SDS011;53426;55.872;37.462;2023-02-28T07:33:40;4.28;;;3.78;;
66384;SDS011;53426;55.872;37.462;2023-02-28T07:36:07;6.70;;;4.60;;
66384;SDS011;53426;55.872;37.462;2023-02-28T07:38:46;3.33;;;3.03;;
66384;SDS011;53426;55.872;37.462;2023-02-28T07:41:14;6.15;;;4.63;;
66384;SDS011;53426;55.872;37.462;2023-02-28T07:43:41;4.28;;;3.85;;
66384;SDS011;53426;55.872;37.462;2023-02-28T07:46:08;3.58;;;3.28;;
66384;SDS011;53426;55.872;37.462;2023-02-28T07:48:38;7.05;;;4.88;;
66384;SDS011;53426;55.872;37.462;2023-02-28T07:51:05;3.05;;;2.72;;
66384;SDS011;53426;55.872;37.462;2023-02-28T07:53:34;4.20;;;3.67;;
66384;SDS011;53426;55.872;37.462;2023-02-28T07:56:03;4.88;;;3.45;;
66384;SDS011;53426;55.872;37.462;2023-02-28T07:58:40;6.20;;;3.15;;
66384;SDS011;53426;55.872;37.462;2023-02-28T08:01:09;4.15;;;3.38;;
66384;SDS011;53426;55.872;37.462;2023-02-28T08:09:23;7.47;;;3.30;;
66384;SDS011;53426;55.872;37.462;2023-02-28T08:14:49;6.95;;;4.47;;
66384;SDS011;53426;55.872;37.462;2023-02-28T08:17:15;4.30;;;3.90;;
66384;SDS011;53426;55.872;37.462;2023-02-28T08:22:50;4.40;;;3.83;;
66384;SDS011;53426;55.872;37.462;2023-02-28T08:29:01;4.18;;;3.40;;
66384;SDS011;53426;55.872;37.462;2023-02-28T08:31:27;4.72;;;3.25;;
66384;SDS011;53426;55.872;37.462;2023-02-28T08:33:53;5.15;;;2.63;;
66384;SDS011;53426;55.872;37.462;2023-02-28T08:36:22;4.18;;;2.65;;
66384;SDS011;53426;55.872;37.462;2023-02-28T08:38:50;4.25;;;3.53;;
66384;SDS011;53426;55.872;37.462;2023-02-28T08:41:16;4.75;;;3.33;;
66384;SDS011;53426;55.872;37.462;2023-02-28T08:43:41;2.65;;;2.45;;
66384;SDS011;53426;55.872;37.462;2023-02-28T08:46:08;4.63;;;3.38;;
66384;SDS011;53426;55.872;37.462;2023-02-28T08:48:36;3.33;;;2.95;;
66384;SDS011;53426;55.872;37.462;2023-02-28T08:51:06;5.30;;;3.47;;
66384;SDS011;53426;55.872;37.462;2023-02-28T08:53:35;4.07;;;2.92;;
66384;SDS011;53426;55.872;37.462;2023-02-28T08:56:04;3.53;;;3.15;;
66384;SDS011;53426;55.872;37.462;2023-02-28T08:58:32;4.78;;;3.00;;
66384;SDS011;53426;55.872;37.462;2023-02-28T09:00:59;3.53;;;2.60;;
66384;SDS011;53426;55.872;37.462;2023-02-28T09:03:26;7.13;;;3.83;;
66384;SDS011;53426;55.872;37.462;2023-02-28T09:05:55;3.70;;;2.97;;
66384;SDS011;53426;55.872;37.462;2023-02-28T09:08:26;4.75;;;3.40;;
66384;SDS011;53426;55.872;37.462;2023-02-28T09:10:53;3.67;;;3.17;;
66384;SDS011;53426;55.872;37.462;2023-02-28T09:13:21;4.15;;;2.92;;
66384;SDS011;53426;55.872;37.462;2023-02-28T09:15:48;3.58;;;3.28;;
66384;SDS011;53426;55.872;37.462;2023-02-28T09:18:14;3.35;;;3.05;;
66384;SDS011;53426;55.872;37.462;2023-02-28T09:20:40;4.15;;;3.20;;
66384;SDS011;53426;55.872;37.462;2023-02-28T09:23:07;7.43;;;3.10;;
66384;SDS011;53426;55.872;37.462;2023-02-28T09:25:34;4.00;;;3.47;;
66384;SDS011;53426;55.872;37.462;2023-02-28T09:28:01;4.20;;;3.38;;
66384;SDS011;53426;55.872;37.462;2023-02-28T09:30:27;3.72;;;3.35;;
66384;SDS011;53426;55.872;37.462;2023-02-28T09:32:53;4.70;;;3.28;;
66384;SDS011;53426;55.872;37.462;2023-02-28T09:35:20;3.28;;;2.97;;
66384;SDS011;53426;55.872;37.462;2023-02-28T09:37:50;2.83;;;2.58;;
66384;SDS011;53426;55.872;37.462;2023-02-28T09:40:23;8.77;;;3.92;;
66384;SDS011;53426;55.872;37.462;2023-02-28T09:42:51;3.22;;;2.88;;
66384;SDS011;53426;55.872;37.462;2023-02-28T09:47:51;6.07;;;3.03;;
66384;SDS011;53426;55.872;37.462;2023-02-28T09:53:06;3.10;;;2.83;;
66384;SDS011;53426;55.872;37.462;2023-02-28T09:55:45;3.42;;;2.92;;
66384;SDS011;53426;55.872;37.462;2023-02-28T09:58:49;3.17;;;2.88;;
66384;SDS011;53426;55.872;37.462;2023-02-28T10:01:17;3.95;;;3.33;;
66384;SDS011;53426;55.872;37.462;2023-02-28T10:03:55;5.28;;;3.63;;
66384;SDS011;53426;55.872;37.462;2023-02-28T10:06:26;3.85;;;3.42;;
66384;SDS011;53426;55.872;37.462;2023-02-28T10:09:17;5.15;;;2.85;;
66384;SDS011;53426;55.872;37.462;2023-02-28T10:11:45;3.65;;;3.20;;
66384;SDS011;53426;55.872;37.462;2023-02-28T10:14:19;6.70;;;3.20;;
66384;SDS011;53426;55.872;37.462;2023-02-28T10:16:51;3.28;;;2.97;;
66384;SDS011;53426;55.872;37.462;2023-02-28T10:19:31;3.40;;;3.10;;
66384;SDS011;53426;55.872;37.462;2023-02-28T10:22:15;3.42;;;2.60;;
66384;SDS011;53426;55.872;37.462;2023-02-28T10:24:47;5.18;;;3.75;;
66384;SDS011;53426;55.872;37.462;2023-02-28T10:29:45;3.65;;;3.13;;
66384;SDS011;53426;55.872;37.462;2023-02-28T10:32:14;6.53;;;3.38;;
66384;SDS011;53426;55.872;37.462;2023-02-28T10:34:43;2.40;;;2.20;;
66384;SDS011;53426;55.872;37.462;2023-02-28T10:37:10;4.10;;;3.38;;
66384;SDS011;53426;55.872;37.462;2023-02-28T10:39:40;5.93;;;3.90;;
66384;SDS011;53426;55.872;37.462;2023-02-28T10:45:16;3.65;;;2.90;;
66384;SDS011;53426;55.872;37.462;2023-02-28T10:53:51;6.43;;;3.80;;
66384;SDS011;53426;55.872;37.462;2023-02-28T10:55:58;7.05;;;3.53;;
66384;SDS011;53426;55.872;37.462;2023-02-28T10:58:32;2.53;;;2.33;;
66384;SDS011;53426;55.872;37.462;2023-02-28T11:01:12;4.38;;;3.40;;
66384;SDS011;53426;55.872;37.462;2023-02-28T11:03:40;5.55;;;3.33;;
66384;SDS011;53426;55.872;37.462;2023-02-28T11:06:07;4.00;;;2.97;;
66384;SDS011;53426;55.872;37.462;2023-02-28T11:08:47;4.43;;;3.85;;
66384;SDS011;53426;55.872;37.462;2023-02-28T11:11:15;5.15;;;3.85;;
66384;SDS011;53426;55.872;37.462;2023-02-28T11:14:04;5.07;;;3.70;;
66384;SDS011;53426;55.872;37.462;2023-02-28T11:16:40;5.05;;;3.22;;
66384;SDS011;53426;55.872;37.462;2023-02-28T11:19:06;5.25;;;3.38;;
66384;SDS011;53426;55.872;37.462;2023-02-28T11:21:48;3.83;;;3.30;;
66384;SDS011;53426;55.872;37.462;2023-02-28T11:24:27;7.05;;;4.13;;
66384;SDS011;53426;55.872;37.462;2023-02-28T11:27:01;3.65;;;3.22;;
66384;SDS011;53426;55.872;37.462;2023-02-28T11:29:28;4.05;;;3.75;;
66384;SDS011;53426;55.872;37.462;2023-02-28T11:32:16;5.32;;;4.28;;
66384;SDS011;53426;55.872;37.462;2023-02-28T11:34:59;3.53;;;3.22;;
66384;SDS011;53426;55.872;37.462;2023-02-28T11:37:41;4.32;;;3.80;;
66384;SDS011;53426;55.872;37.462;2023-02-28T11:55:49;4.53;;;4.13;;
66384;SDS011;53426;55.872;37.462;2023-02-28T12:05:05;5.32;;;3.95;;
66384;SDS011;53426;55.872;37.462;2023-02-28T12:10:51;6.47;;;4.45;;
66384;SDS011;53426;55.872;37.462;2023-02-28T12:41:56;12.07;;;3.55;;
66384;SDS011;53426;55.872;37.462;2023-02-28T12:44:34;8.15;;;3.90;;
66384;SDS011;53426;55.872;37.462;2023-02-28T12:47:09;6.47;;;4.47;;
66384;SDS011;53426;55.872;37.462;2023-02-28T12:49:42;3.88;;;3.38;;
66384;SDS011;53426;55.872;37.462;2023-02-28T13:22:44;1.95;;;1.85;;
66384;SDS011;53426;55.872;37.462;2023-02-28T13:27:51;4.97;;;3.20;;
66384;SDS011;53426;55.872;37.462;2023-02-28T13:33:33;2.53;;;2.33;;
66384;SDS011;53426;55.872;37.462;2023-02-28T13:38:40;3.42;;;3.13;;
66384;SDS011;53426;55.872;37.462;2023-02-28T13:51:51;3.70;;;3.38;;
66384;SDS011;53426;55.872;37.462;2023-02-28T13:58:12;2.97;;;2.67;;
66384;SDS011;53426;55.872;37.462;2023-02-28T14:04:59;3.88;;;2.75;;
66384;SDS011;53426;55.872;37.462;2023-02-28T14:07:47;4.03;;;3.65;;
66384;SDS011;53426;55.872;37.462;2023-02-28T14:18:14;4.53;;;3.55;;
66384;SDS011;53426;55.872;37.462;2023-02-28T14:20:45;8.07;;;2.72;;
66384;SDS011;53426;55.872;37.462;2023-02-28T14:29:06;5.47;;;3.53;;
66384;SDS011;53426;55.872;37.462;2023-02-28T14:44:20;6.00;;;3.92;;
66384;SDS011;53426;55.872;37.462;2023-02-28T14:46:55;6.72;;;3.40;;
66384;SDS011;53426;55.872;37.462;2023-02-28T14:49:42;6.53;;;4.40;;
66384;SDS011;53426;55.872;37.462;2023-02-28T14:55:12;5.20;;;4.22;;
66384;SDS011;53426;55.872;37.462;2023-02-28T14:57:52;4.35;;;3.92;;
66384;SDS011;53426;55.872;37.462;2023-02-28T15:00:27;3.83;;;3.40;;
66384;SDS011;53426;55.872;37.462;2023-02-28T15:02:55;4.95;;;3.95;;
66384;SDS011;53426;55.872;37.462;2023-02-28T15:05:29;4.65;;;3.05;;
66384;SDS011;53426;55.872;37.462;2023-02-28T15:08:01;3.80;;;3.40;;
66384;SDS011;53426;55.872;37.462;2023-02-28T15:13:53;4.43;;;3.78;;
66384;SDS011;53426;55.872;37.462;2023-02-28T15:16:22;3.38;;;3.08;;
66384;SDS011;53426;55.872;37.462;2023-02-28T15:18:55;4.65;;;3.55;;
66384;SDS011;53426;55.872;37.462;2023-02-28T15:21:44;2.90;;;2.65;;
66384;SDS011;53426;55.872;37.462;2023-02-28T15:24:16;5.15;;;3.97;;
66384;SDS011;53426;55.872;37.462;2023-02-28T15:26:58;5.70;;;4.25;;
66384;SDS011;53426;55.872;37.462;2023-02-28T15:29:29;3.80;;;3.40;;
66384;SDS011;53426;55.872;37.462;2023-02-28T15:32:16;6.80;;;3.70;;
66384;SDS011;53426;55.872;37.462;2023-02-28T15:34:57;4.25;;;3.80;;
66384;SDS011;53426;55.872;37.462;2023-02-28T15:37:26;4.80;;;3.67;;
66384;SDS011;53426;55.872;37.462;2023-02-28T15:40:17;7.63;;;3.97;;
66384;SDS011;53426;55.872;37.462;2023-02-28T15:43:05;6.00;;;4.03;;
66384;SDS011;53426;55.872;37.462;2023-02-28T15:45:38;3.45;;;3.15;;
66384;SDS011;53426;55.872;37.462;2023-02-28T15:48:15;2.45;;;2.25;;
66384;SDS011;53426;55.872;37.462;2023-02-28T15:50:51;4.20;;;3.28;;
66384;SDS011;53426;55.872;37.462;2023-02-28T15:56:07;6.10;;;3.97;;
66384;SDS011;53426;55.872;37.462;2023-02-28T15:59:04;5.80;;;3.50;;
66384;SDS011;53426;55.872;37.462;2023-02-28T16:01:33;6.22;;;3.70;;
66384;SDS011;53426;55.872;37.462;2023-02-28T16:07:12;4.00;;;3.70;;
66384;SDS011;53426;55.872;37.462;2023-02-28T16:12:41;4.50;;;3.47;;
66384;SDS011;53426;55.872;37.462;2023-02-28T16:18:20;4.25;;;3.28;;
66384;SDS011;53426;55.872;37.462;2023-02-28T16:20:47;4.30;;;3.90;;
66384;SDS011;53426;55.872;37.462;2023-02-28T16:23:13;4.47;;;3.97;;
66384;SDS011;53426;55.872;37.462;2023-02-28T16:25:43;6.53;;;3.58;;
66384;SDS011;53426;55.872;37.462;2023-02-28T16:28:23;6.75;;;3.88;;
66384;SDS011;53426;55.872;37.462;2023-02-28T16:31:02;6.57;;;3.80;;
66384;SDS011;53426;55.872;37.462;2023-02-28T16:33:38;6.45;;;2.78;;
66384;SDS011;53426;55.872;37.462;2023-02-28T16:36:05;4.28;;;3.88;;
66384;SDS011;53426;55.872;37.462;2023-02-28T16:53:08;3.30;;;2.55;;
66384;SDS011;53426;55.872;37.462;2023-02-28T16:55:34;2.83;;;2.63;;
66384;SDS011;53426;55.872;37.462;2023-02-28T16:58:01;3.38;;;3.08;;
66384;SDS011;53426;55.872;37.462;2023-02-28T17:00:29;3.50;;;3.15;;
66384;SDS011;53426;55.872;37.462;2023-02-28T17:02:56;3.55;;;3.10;;
66384;SDS011;53426;55.872;37.462;2023-02-28T17:05:24;3.75;;;3.03;;
66384;SDS011;53426;55.872;37.462;2023-02-28T17:07:51;5.18;;;3.47;;
66384;SDS011;53426;55.872;37.462;2023-02-28T17:10:21;3.70;;;3.35;;
66384;SDS011;53426;55.872;37.462;2023-02-28T17:12:49;5.18;;;3.42;;
66384;SDS011;53426;55.872;37.462;2023-02-28T17:15:15;3.55;;;3.25;;
66384;SDS011;53426;55.872;37.462;2023-02-28T17:17:42;2.97;;;2.78;;
66384;SDS011;53426;55.872;37.462;2023-02-28T17:20:13;2.80;;;2.60;;
66384;SDS011;53426;55.872;37.462;2023-02-28T17:22:44;2.80;;;2.60;;
66384;SDS011;53426;55.872;37.462;2023-02-28T17:25:10;3.33;;;2.80;;
66384;SDS011;53426;55.872;37.462;2023-02-28T17:27:39;3.33;;;2.60;;
66384;SDS011;53426;55.872;37.462;2023-02-28T17:30:22;5.30;;;3.40;;
66384;SDS011;53426;55.872;37.462;2023-02-28T17:32:55;3.70;;;3.13;;
66384;SDS011;53426;55.872;37.462;2023-02-28T17:35:22;1.80;;;1.70;;
66384;SDS011;53426;55.872;37.462;2023-02-28T17:37:49;2.63;;;1.52;;
66384;SDS011;53426;55.872;37.462;2023-02-28T17:40:18;1.65;;;1.52;;
66384;SDS011;53426;55.872;37.462;2023-02-28T17:42:46;2.53;;;1.67;;
66384;SDS011;53426;55.872;37.462;2023-02-28T17:45:13;1.23;;;1.13;;
66384;SDS011;53426;55.872;37.462;2023-02-28T17:47:39;3.55;;;1.25;;
66384;SDS011;53426;55.872;37.462;2023-02-28T17:50:12;1.15;;;1.00;;
66384;SDS011;53426;55.872;37.462;2023-02-28T17:52:44;1.33;;;1.23;;
66384;SDS011;53426;55.872;37.462;2023-02-28T17:55:11;3.08;;;1.23;;
66384;SDS011;53426;55.872;37.462;2023-02-28T17:57:38;2.50;;;1.45;;
66384;SDS011;53426;55.872;37.462;2023-02-28T18:00:05;3.75;;;1.50;;
66384;SDS011;53426;55.872;37.462;2023-02-28T18:02:37;6.05;;;1.77;;
66384;SDS011;53426;55.872;37.462;2023-02-28T18:05:04;1.27;;;1.13;;
66384;SDS011;53426;55.872;37.462;2023-02-28T18:07:30;1.45;;;1.00;;
66384;SDS011;53426;55.872;37.462;2023-02-28T18:09:59;3.67;;;1.05;;
66384;SDS011;53426;55.872;37.462;2023-02-28T18:12:25;1.10;;;1.05;;
66384;SDS011;53426;55.872;37.462;2023-02-28T18:14:51;2.55;;;2.05;;
66384;SDS011;53426;55.872;37.462;2023-02-28T18:17:17;2.17;;;1.55;;
66384;SDS011;53426;55.872;37.462;2023-02-28T18:19:43;1.60;;;1.50;;
66384;SDS011;53426;55.872;37.462;2023-02-28T18:22:09;2.38;;;1.38;;
66384;SDS011;53426;55.872;37.462;2023-02-28T18:24:37;4.68;;;1.58;;
66384;SDS011;53426;55.872;37.462;2023-02-28T18:27:03;4.53;;;1.38;;
66384;SDS011;53426;55.872;37.462;2023-02-28T18:29:29;6.03;;;2.10;;
66384;SDS011;53426;55.872;37.462;2023-02-28T18:31:55;6.03;;;2.45;;
66384;SDS011;53426;55.872;37.462;2023-02-28T18:34:24;3.08;;;2.20;;
66384;SDS011;53426;55.872;37.462;2023-02-28T18:36:50;2.75;;;1.55;;
66384;SDS011;53426;55.872;37.462;2023-02-28T18:39:19;6.00;;;2.05;;
66384;SDS011;53426;55.872;37.462;2023-02-28T18:41:46;3.38;;;1.30;;
66384;SDS011;53426;55.872;37.462;2023-02-28T18:44:12;1.58;;;1.48;;
66384;SDS011;53426;55.872;37.462;2023-02-28T18:46:38;1.98;;;1.70;;
66384;SDS011;53426;55.872;37.462;2023-02-28T18:49:04;6.25;;;1.48;;
66384;SDS011;53426;55.872;37.462;2023-02-28T18:51:30;1.73;;;1.50;;
66384;SDS011;53426;55.872;37.462;2023-02-28T18:53:57;3.38;;;1.75;;
66384;SDS011;53426;55.872;37.462;2023-02-28T18:56:23;4.18;;;1.63;;
66384;SDS011;53426;55.872;37.462;2023-02-28T18:58:51;2.88;;;1.60;;
66384;SDS011;53426;55.872;37.462;2023-02-28T19:01:19;1.70;;;1.60;;
66384;SDS011;53426;55.872;37.462;2023-02-28T19:03:46;2.22;;;1.67;;
66384;SDS011;53426;55.872;37.462;2023-02-28T19:06:13;3.42;;;1.80;;
66384;SDS011;53426;55.872;37.462;2023-02-28T19:08:39;5.00;;;1.90;;
66384;SDS011;53426;55.872;37.462;2023-02-28T19:11:13;3.90;;;1.80;;
66384;SDS011;53426;55.872;37.462;2023-02-28T19:13:41;5.50;;;1.90;;
66384;SDS011;53426;55.872;37.462;2023-02-28T19:16:08;1.90;;;1.75;;
66384;SDS011;53426;55.872;37.462;2023-02-28T19:18:34;6.63;;;2.15;;